Time;durP1;ratioP1;P1;durP2;ratioP2;P2;SDS_P1;SDS_P2;PMS_P1;PMS_P2;Temp;Humidity;BMP_temperature;BMP_pressure;BME280_temperature;BME280_humidity;BME280_pressure;Samples;Min_cycle;Max_cycle;Signal;HPM_P1;HPM_P2
2023/07/08 00:01:23;;;;;;;;;;;;;;;26.55;50.23;98171.94;5102309;28;20386;-73
2023/07/08 00:03:50;;;;;;;;;;;;;;;26.45;50.33;98169.78;5094650;28;19936;-73
2023/07/08 00:06:19;;;;;;;;;;;;;;;26.49;50.38;98165.94;5094610;28;19935;-73
2023/07/08 00:08:45;;;;;;;;;;;;;;;26.53;50.52;98172.28;5094305;28;19925;-73
2023/07/08 00:11:13;;;;;;;;;;;;;;;26.55;50.46;98167.25;5084855;28;19944;-73
2023/07/08 00:13:39;;;;;;;;;;;;;;;26.56;50.45;98165.28;5084805;28;19971;-73
2023/07/08 00:16:09;;;;;;;;;;;;;;;26.54;50.76;98156.66;5094073;28;19925;-73
2023/07/08 00:18:35;;;;;;;;;;;;;;;26.52;50.73;98148.78;5093878;28;19963;-75
2023/07/08 00:21:03;;;;;;;;;;;;;;;26.52;50.89;98151.53;5093785;28;19924;-74
2023/07/08 00:23:30;;;;;;;;;;;;;;;26.47;51.16;98149.09;5084671;28;20428;-75
2023/07/08 00:25:57;;;;;;;;;;;;;;;26.41;51.24;98149.72;5093738;28;19935;-72
2023/07/08 00:28:23;;;;;;;;;;;;;;;26.47;51.06;98151.81;5093638;28;19929;-73
2023/07/08 00:30:50;;;;;;;;;;;;;;;26.43;51.19;98150.19;5084083;28;19934;-72
2023/07/08 00:33:17;;;;;;;;;;;;;;;26.41;51.32;98147.00;5093342;28;19963;-73
2023/07/08 00:35:44;;;;;;;;;;;;;;;26.35;51.27;98148.44;5093382;28;19924;-73
2023/07/08 00:38:14;;;;;;;;;;;;;;;26.35;51.28;98154.72;5093633;28;19971;-73
2023/07/08 00:40:50;;;;;;;;;;;;;;;26.30;51.13;98152.28;5093737;28;19961;-73
2023/07/08 00:43:17;;;;;;;;;;;;;;;26.31;51.35;98148.34;5093402;28;19971;-73
2023/07/08 00:45:46;;;;;;;;;;;;;;;26.25;51.31;98144.31;5094213;28;19964;-73
2023/07/08 00:48:17;;;;;;;;;;;;;;;26.23;51.20;98141.16;5095518;28;19925;-73
2023/07/08 00:50:43;;;;;;;;;;;;;;;26.29;51.19;98143.25;5088654;28;19931;-72
2023/07/08 00:53:27;;;;;;;;;;;;;;;26.25;51.25;98145.13;5093421;28;19924;-73
2023/07/08 00:55:56;;;;;;;;;;;;;;;26.16;51.20;98144.53;5093012;28;19924;-73
2023/07/08 00:58:24;;;;;;;;;;;;;;;26.15;51.28;98151.16;5093106;28;19939;-73
2023/07/08 01:00:52;;;;;;;;;;;;;;;26.13;51.33;98155.38;5092873;28;19985;-73
2023/07/08 01:03:19;;;;;;;;;;;;;;;26.08;51.46;98161.94;5092935;28;19956;-73
2023/07/08 01:05:47;;;;;;;;;;;;;;;26.11;51.42;98163.97;5092952;28;19935;-74
2023/07/08 01:08:13;;;;;;;;;;;;;;;26.11;51.34;98166.72;5083142;28;19960;-72
2023/07/08 01:10:42;;;;;;;;;;;;;;;26.12;51.36;98170.25;5092292;28;19924;-72
2023/07/08 01:13:10;;;;;;;;;;;;;;;26.07;51.35;98163.09;5083106;28;20019;-72
2023/07/08 01:15:39;;;;;;;;;;;;;;;26.08;51.49;98166.63;5092937;28;19959;-73
2023/07/08 01:18:06;;;;;;;;;;;;;;;26.12;51.36;98167.50;5092638;28;19980;-73
2023/07/08 01:20:32;;;;;;;;;;;;;;;26.06;51.24;98161.50;5092696;28;19931;-73
2023/07/08 01:23:00;;;;;;;;;;;;;;;26.04;51.46;98160.28;5092767;28;19955;-72
2023/07/08 01:25:27;;;;;;;;;;;;;;;26.09;51.40;98157.28;5092658;28;19947;-72
2023/07/08 01:27:55;;;;;;;;;;;;;;;26.13;51.34;98144.44;5092717;28;19924;-73
2023/07/08 01:30:21;;;;;;;;;;;;;;;26.06;51.56;98150.53;5092557;28;19924;-73
2023/07/08 01:32:50;;;;;;;;;;;;;;;25.97;51.83;98138.22;5092441;28;19928;-73
2023/07/08 01:35:16;;;;;;;;;;;;;;;25.97;51.81;98132.75;5092388;28;20413;-73
2023/07/08 01:37:45;;;;;;;;;;;;;;;25.97;51.77;98133.53;5092368;28;19995;-73
2023/07/08 01:40:17;;;;;;;;;;;;;;;25.97;52.07;98139.00;5092272;28;19931;-73
2023/07/08 01:42:43;;;;;;;;;;;;;;;25.92;52.10;98138.50;5085288;28;19984;-72
2023/07/08 01:45:11;;;;;;;;;;;;;;;25.94;52.03;98138.94;5089591;28;19959;-73
2023/07/08 01:47:37;;;;;;;;;;;;;;;25.91;52.29;98137.69;5091952;28;19924;-73
2023/07/08 01:50:04;;;;;;;;;;;;;;;25.95;52.41;98141.31;5091911;28;19925;-73
2023/07/08 01:52:30;;;;;;;;;;;;;;;25.96;52.22;98137.44;5092226;28;19991;-73
2023/07/08 01:54:57;;;;;;;;;;;;;;;25.81;52.73;98134.75;5092067;28;19963;-72
2023/07/08 01:57:24;;;;;;;;;;;;;;;25.18;54.44;98143.00;5082743;28;19928;-73
2023/07/08 01:59:51;;;;;;;;;;;;;;;24.77;56.01;98135.25;5092080;28;20063;-73
2023/07/08 02:02:17;;;;;;;;;;;;;;;24.83;55.87;98139.34;5091860;28;19920;-73
2023/07/08 02:04:43;;;;;;;;;;;;;;;24.75;56.21;98140.28;5084875;28;19925;-73
2023/07/08 02:07:10;;;;;;;;;;;;;;;24.50;56.94;98147.78;5089278;28;20001;-74
2023/07/08 02:09:36;;;;;;;;;;;;;;;24.54;57.31;98144.00;5091824;28;19931;-73
2023/07/08 02:12:03;;;;;;;;;;;;;;;24.55;57.04;98140.13;5091753;28;19979;-73
2023/07/08 02:14:30;;;;;;;;;;;;;;;24.66;56.73;98130.28;5083482;28;19924;-73
2023/07/08 02:16:57;;;;;;;;;;;;;;;24.93;55.98;98138.84;5091805;28;19963;-73
2023/07/08 02:19:23;;;;;;;;;;;;;;;24.90;55.93;98137.59;5091622;28;19962;-73
2023/07/08 02:21:51;;;;;;;;;;;;;;;25.22;55.37;98138.41;5091390;28;19928;-73
2023/07/08 02:24:18;;;;;;;;;;;;;;;25.38;54.91;98132.94;5091061;28;19996;-73
2023/07/08 02:26:47;;;;;;;;;;;;;;;25.45;54.55;98139.38;5092101;28;19924;-73
2023/07/08 02:29:13;;;;;;;;;;;;;;;25.49;54.13;98140.28;5092752;28;19935;-72
2023/07/08 02:31:41;;;;;;;;;;;;;;;25.52;53.77;98134.09;5092809;28;19925;-73
2023/07/08 02:34:07;;;;;;;;;;;;;;;25.50;53.63;98139.09;5091918;28;20015;-73
2023/07/08 02:36:34;;;;;;;;;;;;;;;25.54;53.25;98147.41;5092731;28;19924;-73
2023/07/08 02:39:00;;;;;;;;;;;;;;;25.48;53.15;98146.84;5092116;28;19964;-73
2023/07/08 02:41:27;;;;;;;;;;;;;;;25.54;52.86;98144.66;5091713;28;19993;-73
2023/07/08 02:43:53;;;;;;;;;;;;;;;25.51;52.75;98143.44;5091283;28;19931;-73
2023/07/08 02:46:19;;;;;;;;;;;;;;;25.51;52.79;98148.91;5091248;28;19967;-73
2023/07/08 02:48:47;;;;;;;;;;;;;;;25.46;52.48;98145.63;5090930;28;19967;-73
2023/07/08 02:51:13;;;;;;;;;;;;;;;25.34;52.59;98149.25;5090924;28;19924;-73
2023/07/08 02:53:39;;;;;;;;;;;;;;;25.24;52.56;98141.59;5081516;28;19924;-73
2023/07/08 02:56:06;;;;;;;;;;;;;;;24.84;52.39;98143.66;5081672;28;19960;-73
2023/07/08 02:58:34;;;;;;;;;;;;;;;24.50;53.44;98143.13;5090865;28;19924;-73
2023/07/08 03:01:00;;;;;;;;;;;;;;;24.23;54.06;98146.66;5090851;28;19931;-73
2023/07/08 03:03:28;;;;;;;;;;;;;;;24.06;54.35;98146.88;5081151;28;19925;-73
2023/07/08 03:05:57;;;;;;;;;;;;;;;23.45;55.39;98141.53;5090865;28;19925;-72
2023/07/08 03:08:23;;;;;;;;;;;;;;;23.36;55.97;98145.47;5090730;28;19939;-73
2023/07/08 03:10:55;;;;;;;;;;;;;;;23.11;56.49;98144.66;5090755;28;19988;-73
2023/07/08 03:13:21;;;;;;;;;;;;;;;23.01;56.73;98131.47;5090698;28;19958;-73
2023/07/08 03:15:47;;;;;;;;;;;;;;;22.89;56.87;98134.16;5090706;28;19924;-74
2023/07/08 03:18:14;;;;;;;;;;;;;;;22.81;56.87;98140.53;5090602;28;20051;-72
2023/07/08 03:20:40;;;;;;;;;;;;;;;22.78;57.47;98136.53;5090617;28;19999;-73
2023/07/08 03:23:08;;;;;;;;;;;;;;;22.76;57.56;98135.28;5090510;28;19928;-72
2023/07/08 03:25:36;;;;;;;;;;;;;;;23.29;56.68;98140.56;5090744;28;19924;-73
2023/07/08 03:28:03;;;;;;;;;;;;;;;23.91;55.62;98137.50;5090620;28;19924;-73
2023/07/08 03:30:30;;;;;;;;;;;;;;;24.52;53.92;98140.84;5081255;28;19928;-73
2023/07/08 03:32:56;;;;;;;;;;;;;;;24.65;53.27;98139.66;5090531;28;19924;-73
2023/07/08 03:35:22;;;;;;;;;;;;;;;24.81;53.11;98149.81;5094134;28;19925;-72
2023/07/08 03:37:49;;;;;;;;;;;;;;;24.84;52.98;98143.66;5094838;28;19928;-73
2023/07/08 03:40:16;;;;;;;;;;;;;;;24.82;52.84;98148.69;5094744;28;19960;-73
2023/07/08 03:42:43;;;;;;;;;;;;;;;24.67;52.88;98152.94;5094554;28;20612;-73
2023/07/08 03:45:10;;;;;;;;;;;;;;;24.61;53.30;98146.13;5084871;28;20042;-73
2023/07/08 03:47:36;;;;;;;;;;;;;;;24.75;52.95;98151.19;5094477;28;19924;-73
2023/07/08 03:50:03;;;;;;;;;;;;;;;24.78;52.65;98153.22;5094273;28;19984;-73
2023/07/08 03:52:29;;;;;;;;;;;;;;;24.79;52.41;98150.13;5085178;28;19928;-73
2023/07/08 03:54:56;;;;;;;;;;;;;;;24.84;52.29;98158.13;5094010;28;19974;-73
2023/07/08 03:57:24;;;;;;;;;;;;;;;24.84;51.66;98151.88;5094130;28;19924;-72
2023/07/08 03:59:50;;;;;;;;;;;;;;;24.82;51.88;98149.47;5094153;28;19964;-73
2023/07/08 04:02:17;;;;;;;;;;;;;;;24.56;51.94;98152.66;5094041;28;19950;-74
2023/07/08 04:04:43;;;;;;;;;;;;;;;24.42;51.87;98170.56;5094172;28;19924;-73
2023/07/08 04:07:09;;;;;;;;;;;;;;;23.96;53.01;98167.25;5093946;28;19992;-72
2023/07/08 04:09:36;;;;;;;;;;;;;;;24.21;52.63;98161.75;5094084;28;19952;-73
2023/07/08 04:12:02;;;;;;;;;;;;;;;24.28;52.59;98156.53;5084387;28;19996;-72
2023/07/08 04:14:30;;;;;;;;;;;;;;;24.36;51.99;98164.56;5085825;28;19959;-73
2023/07/08 04:16:57;;;;;;;;;;;;;;;24.03;52.77;98150.31;5095915;28;19947;-74
2023/07/08 04:19:24;;;;;;;;;;;;;;;24.15;52.64;98151.09;5095271;28;19967;-73
2023/07/08 04:21:50;;;;;;;;;;;;;;;24.01;53.00;98152.59;5093522;28;19996;-74
2023/07/08 04:24:17;;;;;;;;;;;;;;;24.20;52.82;98154.75;5093631;28;19995;-73
2023/07/08 04:26:46;;;;;;;;;;;;;;;24.43;52.20;98159.31;5093456;28;19925;-73
2023/07/08 04:29:13;;;;;;;;;;;;;;;24.50;51.85;98162.25;5093547;28;19950;-73
2023/07/08 04:31:41;;;;;;;;;;;;;;;24.63;51.74;98161.03;5093940;28;19963;-74
2023/07/08 04:34:07;;;;;;;;;;;;;;;24.52;51.73;98165.41;5093739;28;19940;-72
2023/07/08 04:36:34;;;;;;;;;;;;;;;24.51;51.85;98177.47;5094063;28;19924;-74
2023/07/08 04:39:01;;;;;;;;;;;;;;;24.40;52.08;98168.19;5093642;28;19925;-72
2023/07/08 04:41:27;;;;;;;;;;;;;;;24.51;51.94;98169.28;5084205;28;19931;-73
2023/07/08 04:43:57;;;;;;;;;;;;;;;24.35;51.83;98165.72;5093675;28;19928;-74
2023/07/08 04:46:27;;;;;;;;;;;;;;;24.37;51.84;98171.63;5092658;28;19924;-73
2023/07/08 04:48:55;;;;;;;;;;;;;;;24.13;52.70;98166.22;5093165;28;19948;-73
2023/07/08 04:51:21;;;;;;;;;;;;;;;23.58;53.54;98166.84;5093149;28;19924;-73
2023/07/08 04:53:48;;;;;;;;;;;;;;;22.71;55.52;98168.16;5092977;28;19996;-73
2023/07/08 04:56:15;;;;;;;;;;;;;;;22.47;57.20;98166.91;5093144;28;19924;-73
2023/07/08 04:58:41;;;;;;;;;;;;;;;22.60;57.48;98165.81;5092980;28;19924;-73
2023/07/08 05:01:07;;;;;;;;;;;;;;;22.59;56.82;98166.94;5092994;28;19984;-72
2023/07/08 05:03:34;;;;;;;;;;;;;;;22.40;57.26;98166.66;5092714;28;19993;-72
2023/07/08 05:06:01;;;;;;;;;;;;;;;22.89;56.59;98164.13;5092979;28;19956;-72
2023/07/08 05:08:28;;;;;;;;;;;;;;;22.68;56.66;98155.22;5079745;28;19932;-73
2023/07/08 05:10:54;;;;;;;;;;;;;;;22.76;56.92;98154.34;5087797;28;19924;-72
2023/07/08 05:13:20;;;;;;;;;;;;;;;23.11;56.29;98155.56;5092562;28;19999;-73
2023/07/08 05:15:48;;;;;;;;;;;;;;;23.29;55.78;98164.31;5092755;28;19931;-73
2023/07/08 05:18:15;;;;;;;;;;;;;;;23.45;55.59;98162.53;5092663;28;20003;-73
2023/07/08 05:20:43;;;;;;;;;;;;;;;23.48;55.57;98162.66;5092545;28;20015;-73
2023/07/08 05:23:10;;;;;;;;;;;;;;;22.97;56.77;98165.94;5093517;28;19932;-73
2023/07/08 05:25:37;;;;;;;;;;;;;;;22.88;56.80;98165.25;5093642;28;19924;-74
2023/07/08 05:28:03;;;;;;;;;;;;;;;23.14;56.32;98176.66;5084051;28;19920;-73
2023/07/08 05:30:30;;;;;;;;;;;;;;;23.30;55.89;98171.34;5093113;28;20015;-74
2023/07/08 05:32:56;;;;;;;;;;;;;;;23.33;56.16;98176.94;5084157;28;19924;-73
2023/07/08 05:35:24;;;;;;;;;;;;;;;22.91;57.55;98170.03;5091445;28;20000;-73
2023/07/08 05:37:50;;;;;;;;;;;;;;;23.10;57.18;98173.81;5092151;28;19928;-73
2023/07/08 05:40:18;;;;;;;;;;;;;;;23.78;55.79;98165.13;5082403;28;19931;-73
2023/07/08 05:42:44;;;;;;;;;;;;;;;24.15;54.82;98174.84;5092057;28;19936;-73
2023/07/08 05:45:11;;;;;;;;;;;;;;;24.37;54.52;98181.75;5082453;28;20293;-73
2023/07/08 05:47:37;;;;;;;;;;;;;;;24.31;54.40;98178.47;5092066;28;20003;-73
2023/07/08 05:50:04;;;;;;;;;;;;;;;24.61;54.13;98185.16;5091883;28;19924;-73
2023/07/08 05:52:30;;;;;;;;;;;;;;;24.59;54.90;98179.28;5087421;28;19964;-73
2023/07/08 05:54:57;;;;;;;;;;;;;;;24.57;54.95;98178.81;5087526;28;19971;-72
2023/07/08 05:57:24;;;;;;;;;;;;;;;24.62;55.06;98184.03;5091037;28;19956;-73
2023/07/08 05:59:52;;;;;;;;;;;;;;;24.68;54.95;98184.56;5091893;28;19930;-74
2023/07/08 06:02:21;;;;;;;;;;;;;;;24.86;55.07;98191.34;5092218;28;19966;-73
2023/07/08 06:04:47;;;;;;;;;;;;;;;25.38;53.21;98188.41;5092039;28;19924;-74
2023/07/08 06:07:14;;;;;;;;;;;;;;;25.37;53.79;98186.81;5091960;28;20019;-74
2023/07/08 06:09:40;;;;;;;;;;;;;;;25.46;53.92;98184.72;5091950;28;19929;-73
2023/07/08 06:12:07;;;;;;;;;;;;;;;25.74;52.87;98188.16;5091927;28;20546;-73
2023/07/08 06:14:35;;;;;;;;;;;;;;;25.97;52.55;98188.28;5091966;28;19924;-74
2023/07/08 06:17:01;;;;;;;;;;;;;;;26.26;52.40;98185.06;5091989;28;19928;-74
2023/07/08 06:19:27;;;;;;;;;;;;;;;26.19;53.22;98195.03;5092467;28;19948;-72
2023/07/08 06:21:54;;;;;;;;;;;;;;;26.20;53.34;98197.44;5092512;28;20281;-74
2023/07/08 06:24:20;;;;;;;;;;;;;;;26.14;53.45;98195.31;5092220;28;19924;-74
2023/07/08 06:26:47;;;;;;;;;;;;;;;25.92;53.59;98196.78;5091589;28;19924;-73
2023/07/08 06:29:13;;;;;;;;;;;;;;;26.29;53.16;98187.06;5091269;28;19947;-74
2023/07/08 06:31:41;;;;;;;;;;;;;;;26.25;53.65;98177.97;5091398;28;19974;-73
2023/07/08 06:34:07;;;;;;;;;;;;;;;26.35;53.36;98184.03;5091270;28;19924;-74
2023/07/08 06:36:34;;;;;;;;;;;;;;;26.42;53.31;98171.28;5091397;28;20019;-74
2023/07/08 06:39:00;;;;;;;;;;;;;;;26.37;53.46;98168.06;5082424;28;19925;-74
2023/07/08 06:41:26;;;;;;;;;;;;;;;26.72;52.92;98168.75;5090881;28;19924;-74
2023/07/08 06:43:53;;;;;;;;;;;;;;;26.93;52.72;98168.38;5081690;28;19983;-74
2023/07/08 06:46:20;;;;;;;;;;;;;;;26.98;52.49;98168.09;5081715;28;19924;-74
2023/07/08 06:48:48;;;;;;;;;;;;;;;27.18;52.40;98175.09;5091439;28;19980;-74
2023/07/08 06:51:14;;;;;;;;;;;;;;;27.44;52.06;98182.63;5091108;28;19924;-74
2023/07/08 06:53:41;;;;;;;;;;;;;;;27.52;51.78;98176.88;5091126;28;19978;-73
2023/07/08 06:56:08;;;;;;;;;;;;;;;27.66;51.61;98168.91;5091023;28;19928;-73
2023/07/08 06:58:34;;;;;;;;;;;;;;;27.62;51.06;98162.56;5085836;28;19925;-73
2023/07/08 07:01:01;;;;;;;;;;;;;;;27.60;51.31;98161.34;5087151;28;19939;-74
2023/07/08 07:03:27;;;;;;;;;;;;;;;27.54;51.05;98155.38;5090715;28;20035;-74
2023/07/08 07:05:55;;;;;;;;;;;;;;;27.44;51.47;98139.53;5090708;28;19992;-73
2023/07/08 07:08:21;;;;;;;;;;;;;;;27.46;51.45;98136.41;5090504;28;19932;-74
2023/07/08 07:10:47;;;;;;;;;;;;;;;27.37;50.96;98142.13;5090726;28;19932;-74
2023/07/08 07:13:14;;;;;;;;;;;;;;;27.27;51.00;98142.75;5081187;28;19984;-74
2023/07/08 07:15:40;;;;;;;;;;;;;;;27.52;51.36;98143.97;5090656;28;19959;-74
2023/07/08 07:18:07;;;;;;;;;;;;;;;27.77;51.08;98158.84;5090592;28;19959;-74
2023/07/08 07:20:34;;;;;;;;;;;;;;;27.83;50.27;98162.06;5089239;28;19959;-74
2023/07/08 07:23:02;;;;;;;;;;;;;;;27.69;49.43;98153.63;5090582;28;19936;-74
2023/07/08 07:25:28;;;;;;;;;;;;;;;27.71;49.75;98154.84;5090375;28;19935;-73
2023/07/08 07:27:54;;;;;;;;;;;;;;;27.78;50.17;98157.72;5081161;28;19921;-73
2023/07/08 07:30:21;;;;;;;;;;;;;;;28.07;49.97;98155.41;5090587;28;19984;-73
2023/07/08 07:32:47;;;;;;;;;;;;;;;28.03;49.56;98157.25;5090682;28;19925;-73
2023/07/08 07:35:14;;;;;;;;;;;;;;;28.32;49.39;98161.97;5090656;28;19936;-75
2023/07/08 07:37:41;;;;;;;;;;;;;;;28.47;49.12;98160.22;5090672;28;19924;-74
2023/07/08 07:40:12;;;;;;;;;;;;;;;28.65;48.40;98164.00;5090618;28;19925;-74
2023/07/08 07:42:39;;;;;;;;;;;;;;;28.63;46.99;98152.53;5090463;28;19982;-74
2023/07/08 07:45:06;;;;;;;;;;;;;;;28.61;48.15;98155.66;5090235;28;19924;-74
2023/07/08 07:47:32;;;;;;;;;;;;;;;28.70;47.32;98153.44;5090427;28;19971;-73
2023/07/08 07:49:59;;;;;;;;;;;;;;;28.55;46.57;98148.94;5090280;28;19935;-73
2023/07/08 07:52:25;;;;;;;;;;;;;;;28.61;46.79;98147.44;5089285;28;19924;-73
2023/07/08 07:54:53;;;;;;;;;;;;;;;28.76;46.10;98151.16;5090419;28;19925;-73
2023/07/08 07:57:21;;;;;;;;;;;;;;;28.34;44.96;98152.22;5090508;28;20016;-73
2023/07/08 07:59:48;;;;;;;;;;;;;;;28.23;42.00;98150.50;5090615;28;20000;-73
2023/07/08 08:02:15;;;;;;;;;;;;;;;28.10;42.55;98160.91;5090610;28;20378;-73
2023/07/08 08:04:41;;;;;;;;;;;;;;;28.34;43.20;98168.72;5090704;28;20246;-74
2023/07/08 08:07:07;;;;;;;;;;;;;;;28.06;41.55;98165.59;5090622;28;19971;-74
2023/07/08 08:09:34;;;;;;;;;;;;;;;28.23;42.12;98176.00;5085004;28;19935;-74
2023/07/08 08:12:02;;;;;;;;;;;;;;;28.15;42.26;98173.53;5086629;28;20027;-74
2023/07/08 08:14:29;;;;;;;;;;;;;;;27.78;42.42;98165.94;5090325;28;19984;-74
2023/07/08 08:16:56;;;;;;;;;;;;;;;27.57;41.99;98160.13;5090735;28;19925;-73
2023/07/08 08:19:23;;;;;;;;;;;;;;;27.56;41.87;98161.28;5080994;28;19924;-74
2023/07/08 08:21:49;;;;;;;;;;;;;;;27.55;41.99;98162.44;5093506;28;19925;-74
2023/07/08 08:24:16;;;;;;;;;;;;;;;27.39;42.49;98164.47;5094403;28;19948;-74
2023/07/08 08:26:42;;;;;;;;;;;;;;;27.48;42.68;98161.53;5102012;28;19929;-74
2023/07/08 08:29:09;;;;;;;;;;;;;;;27.52;43.20;98163.16;5094242;28;19925;-74
2023/07/08 08:31:36;;;;;;;;;;;;;;;27.54;42.56;98182.81;5084638;28;20427;-74
2023/07/08 08:34:03;;;;;;;;;;;;;;;27.63;43.41;98169.63;5084700;28;19955;-74
2023/07/08 08:36:29;;;;;;;;;;;;;;;27.57;43.02;98176.59;5084471;28;19925;-74
2023/07/08 08:38:55;;;;;;;;;;;;;;;27.66;43.04;98176.34;5093797;28;20023;-74
2023/07/08 08:41:28;;;;;;;;;;;;;;;27.58;43.28;98172.66;5093663;28;19984;-74
2023/07/08 08:43:54;;;;;;;;;;;;;;;27.68;43.00;98168.50;5093750;28;19979;-74
2023/07/08 08:46:24;;;;;;;;;;;;;;;27.58;42.97;98171.88;5094382;28;19931;-74
2023/07/08 08:48:55;;;;;;;;;;;;;;;28.20;43.80;98175.94;5094216;28;20292;-74
2023/07/08 08:51:22;;;;;;;;;;;;;;;28.56;43.13;98172.50;5094730;28;19987;-74
2023/07/08 08:53:57;;;;;;;;;;;;;;;28.30;42.84;98175.31;5094410;28;20011;-74
2023/07/08 08:56:26;;;;;;;;;;;;;;;28.23;43.51;98170.50;5094279;28;19924;-74
2023/07/08 08:58:56;;;;;;;;;;;;;;;27.97;43.97;98181.50;5094200;28;19960;-74
2023/07/08 09:01:22;;;;;;;;;;;;;;;27.69;44.06;98173.66;5094113;28;19979;-74
2023/07/08 09:03:51;;;;;;;;;;;;;;;27.82;44.53;98177.75;5093249;28;19928;-74
2023/07/08 09:06:21;;;;;;;;;;;;;;;27.79;44.43;98183.97;5093567;28;19987;-74
2023/07/08 09:08:48;;;;;;;;;;;;;;;27.80;44.47;98174.59;5093356;28;19924;-74
2023/07/08 09:11:20;;;;;;;;;;;;;;;27.81;44.49;98176.19;5093071;28;19996;-74
2023/07/08 09:13:46;;;;;;;;;;;;;;;27.73;44.21;98168.22;5093078;28;19932;-74
2023/07/08 09:16:17;;;;;;;;;;;;;;;27.82;44.52;98169.50;5093074;28;19977;-73
2023/07/08 09:18:57;;;;;;;;;;;;;;;28.19;45.00;98175.19;5092906;28;19956;-73
2023/07/08 09:21:27;;;;;;;;;;;;;;;28.18;44.52;98181.81;5092740;28;19932;-73
2023/07/08 09:24:00;;;;;;;;;;;;;;;28.17;44.70;98177.50;5083102;28;19929;-73
2023/07/08 09:26:28;;;;;;;;;;;;;;;28.37;44.37;98176.19;5083246;28;19996;-73
2023/07/08 09:28:54;;;;;;;;;;;;;;;28.23;45.02;98175.22;5092520;28;19946;-74
2023/07/08 09:31:23;;;;;;;;;;;;;;;28.33;45.05;98158.88;5092413;28;19932;-74
2023/07/08 09:33:51;;;;;;;;;;;;;;;28.27;45.08;98162.31;5092650;28;19929;-73
2023/07/08 09:36:18;;;;;;;;;;;;;;;28.50;45.11;98171.25;5092723;28;19959;-74
2023/07/08 09:38:47;;;;;;;;;;;;;;;28.22;44.98;98168.16;5092429;28;19988;-74
2023/07/08 09:41:14;;;;;;;;;;;;;;;28.11;44.96;98167.19;5092535;28;19934;-74
2023/07/08 09:43:40;;;;;;;;;;;;;;;27.93;45.19;98174.38;5092781;28;19947;-74
2023/07/08 09:46:11;;;;;;;;;;;;;;;27.97;45.42;98161.50;5092426;28;19979;-73
2023/07/08 09:48:38;;;;;;;;;;;;;;;28.03;45.96;98169.03;5092196;28;19952;-74
2023/07/08 09:51:06;;;;;;;;;;;;;;;28.01;45.65;98167.84;5092254;28;20065;-73
2023/07/08 09:53:34;;;;;;;;;;;;;;;28.11;45.65;98170.75;5082680;28;19935;-74
2023/07/08 09:56:03;;;;;;;;;;;;;;;28.22;45.18;98174.44;5092169;28;19935;-73
2023/07/08 09:58:31;;;;;;;;;;;;;;;28.08;45.95;98171.47;5082927;28;19970;-74
2023/07/08 10:00:59;;;;;;;;;;;;;;;28.02;46.28;98170.19;5083672;28;19925;-74
2023/07/08 10:03:28;;;;;;;;;;;;;;;28.33;45.99;98169.88;5091869;28;19924;-73
2023/07/08 10:05:57;;;;;;;;;;;;;;;28.47;45.53;98174.75;5091895;28;19967;-73
2023/07/08 10:08:25;;;;;;;;;;;;;;;28.27;45.23;98170.56;5091972;28;20100;-73
2023/07/08 10:10:56;;;;;;;;;;;;;;;28.29;45.06;98171.75;5092111;28;19947;-72
2023/07/08 10:13:27;;;;;;;;;;;;;;;28.18;44.73;98170.06;5091978;28;19991;-73
2023/07/08 10:15:56;;;;;;;;;;;;;;;28.29;44.60;98169.00;5092057;28;19924;-73
2023/07/08 10:18:25;;;;;;;;;;;;;;;28.65;44.79;98172.25;5091788;28;19935;-73
2023/07/08 10:20:56;;;;;;;;;;;;;;;28.71;44.12;98176.22;5091789;28;19925;-74
2023/07/08 10:23:29;;;;;;;;;;;;;;;28.82;44.02;98180.69;5082345;28;19937;-75
2023/07/08 10:25:59;;;;;;;;;;;;;;;28.88;44.18;98178.38;5091903;28;19947;-74
2023/07/08 10:28:30;;;;;;;;;;;;;;;28.99;44.20;98173.78;5091792;28;19989;-73
2023/07/08 10:31:02;;;;;;;;;;;;;;;28.98;44.26;98182.41;5092122;28;20287;-73
2023/07/08 10:33:43;;;;;;;;;;;;;;;28.80;42.50;98184.97;5092484;28;19924;-74
2023/07/08 10:36:18;;;;;;;;;;;;;;;28.65;42.47;98185.97;5092637;28;19956;-74
2023/07/08 10:38:50;;;;;;;;;;;;;;;28.56;42.15;98177.22;5091875;28;19931;-74
2023/07/08 10:41:21;;;;;;;;;;;;;;;28.56;41.82;98189.00;5091424;28;19925;-74
2023/07/08 10:43:59;;;;;;;;;;;;;;;28.62;42.52;98183.94;5091083;28;19951;-74
2023/07/08 10:46:33;;;;;;;;;;;;;;;28.61;42.34;98185.91;5091718;28;19964;-74
2023/07/08 10:49:07;;;;;;;;;;;;;;;28.77;42.13;98191.22;5082622;28;19964;-74
2023/07/08 10:51:38;;;;;;;;;;;;;;;28.67;42.15;98195.44;5087612;28;19960;-75
2023/07/08 10:54:24;;;;;;;;;;;;;;;28.56;42.29;98193.69;5091732;28;20071;-75
2023/07/08 10:56:54;;;;;;;;;;;;;;;28.59;41.64;98193.75;5091449;28;19991;-74
2023/07/08 10:59:31;;;;;;;;;;;;;;;28.60;40.82;98183.50;5081955;28;19932;-73
2023/07/08 11:02:16;;;;;;;;;;;;;;;28.54;41.30;98190.50;5091354;28;19924;-73
2023/07/08 11:04:50;;;;;;;;;;;;;;;28.53;41.35;98198.00;5084603;28;19925;-74
2023/07/08 11:07:23;;;;;;;;;;;;;;;28.72;41.79;98188.81;5081821;28;19924;-75
2023/07/08 11:09:53;;;;;;;;;;;;;;;28.90;42.37;98187.84;5092022;28;20521;-74
2023/07/08 11:12:24;;;;;;;;;;;;;;;29.06;42.61;98195.84;5090907;28;19959;-74
2023/07/08 11:14:55;;;;;;;;;;;;;;;29.00;41.04;98191.84;5081665;28;19925;-75
2023/07/08 11:17:23;;;;;;;;;;;;;;;28.99;41.27;98192.25;5081866;28;19995;-74
2023/07/08 11:19:51;;;;;;;;;;;;;;;29.00;42.00;98180.84;5091287;28;19924;-74
2023/07/08 11:22:18;;;;;;;;;;;;;;;29.08;40.70;98178.97;5092143;28;20412;-73
2023/07/08 11:24:46;;;;;;;;;;;;;;;28.97;41.52;98180.84;5091819;28;19924;-73
2023/07/08 11:27:18;;;;;;;;;;;;;;;28.97;41.04;98169.84;5091225;28;19925;-73
2023/07/08 11:29:47;;;;;;;;;;;;;;;29.11;41.25;98173.50;5091288;28;19925;-73
2023/07/08 11:32:17;;;;;;;;;;;;;;;29.19;39.67;98174.34;5090957;28;19931;-74
2023/07/08 11:34:45;;;;;;;;;;;;;;;29.21;39.35;98172.03;5091019;28;19940;-73
2023/07/08 11:37:13;;;;;;;;;;;;;;;29.10;39.77;98174.69;5091271;28;19932;-73
2023/07/08 11:39:41;;;;;;;;;;;;;;;29.01;39.91;98165.94;5091135;28;19935;-73
2023/07/08 11:42:15;;;;;;;;;;;;;;;29.09;40.36;98166.81;5081638;28;19924;-73
2023/07/08 11:44:43;;;;;;;;;;;;;;;29.01;41.00;98159.66;5091203;28;19925;-73
2023/07/08 11:47:16;;;;;;;;;;;;;;;29.03;40.61;98168.34;5091262;28;19947;-74
2023/07/08 11:49:43;;;;;;;;;;;;;;;28.89;39.70;98164.25;5091857;28;19920;-73
2023/07/08 11:52:14;;;;;;;;;;;;;;;28.83;39.88;98160.28;5094864;28;19947;-74
2023/07/08 11:54:44;;;;;;;;;;;;;;;28.90;40.48;98159.56;5098100;28;19920;-74
2023/07/08 11:57:17;;;;;;;;;;;;;;;29.03;40.76;98151.84;5101512;28;19912;-75
2023/07/08 11:59:44;;;;;;;;;;;;;;;29.26;41.13;98152.47;5092184;28;19931;-74
2023/07/08 12:02:13;;;;;;;;;;;;;;;29.40;40.31;98150.59;5100733;28;19931;-74
2023/07/08 12:04:55;;;;;;;;;;;;;;;29.43;41.05;98149.84;5100143;28;19912;-73
2023/07/08 12:07:30;;;;;;;;;;;;;;;29.47;39.96;98149.88;5096553;28;19947;-75
2023/07/08 12:09:59;;;;;;;;;;;;;;;29.55;40.53;98156.25;5094520;28;19928;-75
2023/07/08 12:12:28;;;;;;;;;;;;;;;29.66;40.53;98152.38;5085162;28;19951;-75
2023/07/08 12:15:00;;;;;;;;;;;;;;;29.73;38.45;98149.69;5085531;28;19960;-75
2023/07/08 12:17:27;;;;;;;;;;;;;;;29.63;39.05;98153.16;5109355;28;19929;-74
2023/07/08 12:19:55;;;;;;;;;;;;;;;29.58;39.28;98158.22;5093942;28;20402;-74
2023/07/08 12:22:22;;;;;;;;;;;;;;;29.37;40.26;98145.09;5094236;28;19925;-73
2023/07/08 12:24:52;;;;;;;;;;;;;;;29.55;39.29;98135.00;5094034;28;19925;-73
2023/07/08 12:27:18;;;;;;;;;;;;;;;29.63;39.67;98133.88;5094044;28;19924;-73
2023/07/08 12:29:45;;;;;;;;;;;;;;;29.67;40.37;98142.97;5084344;28;19988;-75
2023/07/08 12:32:13;;;;;;;;;;;;;;;29.67;40.47;98134.72;5093914;28;19925;-75
2023/07/08 12:34:40;;;;;;;;;;;;;;;29.80;40.93;98146.97;5093776;28;19925;-74
2023/07/08 12:37:11;;;;;;;;;;;;;;;29.92;38.74;98141.19;5093825;28;19970;-77
2023/07/08 12:39:37;;;;;;;;;;;;;;;30.00;38.79;98142.00;5093668;28;19931;-75
2023/07/08 12:42:09;;;;;;;;;;;;;;;29.79;40.34;98125.34;5093867;28;20635;-75
2023/07/08 12:44:37;;;;;;;;;;;;;;;29.97;40.84;98132.56;5086165;28;20003;-74
2023/07/08 12:47:04;;;;;;;;;;;;;;;29.85;40.58;98129.34;5083926;28;19929;-73
2023/07/08 12:49:30;;;;;;;;;;;;;;;29.95;40.84;98132.16;5085242;28;19988;-73
2023/07/08 12:51:57;;;;;;;;;;;;;;;30.04;41.31;98129.06;5093721;28;19951;-74